Time;durP1;ratioP1;P1;durP2;ratioP2;P2;SDS_P1;SDS_P2;PMS_P1;PMS_P2;Temp;Humidity;BMP_temperature;BMP_pressure;BME280_temperature;BME280_humidity;BME280_pressure;Samples;Min_cycle;Max_cycle;Signal;HPM_P1;HPM_P2
2023/08/25 00:00:38;;;;;;;9.10;8.30;;;;;;;;;;5030657;28;20451;-81
2023/08/25 00:03:06;;;;;;;9.00;8.10;;;;;;;;;;5029710;28;20497;-82
2023/08/25 00:05:37;;;;;;;9.50;8.60;;;;;;;;;;5029005;28;20466;-80
2023/08/25 00:08:06;;;;;;;9.70;8.80;;;;;;;;;;5031139;28;20451;-79
2023/08/25 00:10:34;;;;;;;9.47;8.57;;;;;;;;;;5029563;28;20522;-78
2023/08/25 00:13:02;;;;;;;9.37;8.47;;;;;;;;;;5032677;28;20483;-81
2023/08/25 00:15:30;;;;;;;11.47;8.70;;;;;;;;;;5030275;28;20458;-81
2023/08/25 00:17:57;;;;;;;9.37;8.43;;;;;;;;;;5031469;28;20448;-80
2023/08/25 00:20:25;;;;;;;9.00;8.13;;;;;;;;;;5030168;28;20451;-81
2023/08/25 00:22:53;;;;;;;9.70;8.80;;;;;;;;;;5028307;28;20451;-80
2023/08/25 00:25:22;;;;;;;10.80;7.93;;;;;;;;;;5031794;28;20446;-78
2023/08/25 00:27:49;;;;;;;8.97;8.17;;;;;;;;;;5030533;28;20465;-79
2023/08/25 00:30:17;;;;;;;11.77;8.27;;;;;;;;;;5031824;28;20447;-82
2023/08/25 00:32:45;;;;;;;11.80;10.80;;;;;;;;;;5030476;28;20452;-81
2023/08/25 00:35:15;;;;;;;9.20;8.40;;;;;;;;;;5029793;28;20469;-81
2023/08/25 00:37:43;;;;;;;10.00;9.00;;;;;;;;;;5029504;28;20455;-80
2023/08/25 00:40:14;;;;;;;12.83;8.10;;;;;;;;;;5029950;28;20570;-82
2023/08/25 00:42:43;;;;;;;8.43;7.63;;;;;;;;;;5027649;28;20470;-79
2023/08/25 00:45:11;;;;;;;10.07;7.60;;;;;;;;;;5029126;28;20451;-82
2023/08/25 00:47:38;;;;;;;8.80;8.10;;;;;;;;;;5030335;28;20471;-81
2023/08/25 00:50:11;;;;;;;10.17;9.07;;;;;;;;;;5032424;28;20530;-80
2023/08/25 00:52:38;;;;;;;8.73;7.83;;;;;;;;;;5028387;28;20470;-81
2023/08/25 00:55:09;;;;;;;9.00;7.77;;;;;;;;;;5028128;28;20455;-79
2023/08/25 00:57:37;;;;;;;8.13;7.23;;;;;;;;;;5030146;28;20837;-81
2023/08/25 01:00:11;;;;;;;9.10;8.20;;;;;;;;;;5028179;28;20554;-80
2023/08/25 01:02:57;;;;;;;10.30;7.23;;;;;;;;;;5027711;28;20443;-82
2023/08/25 01:05:25;;;;;;;7.97;7.03;;;;;;;;;;5024736;28;20458;-82
2023/08/25 01:07:56;;;;;;;10.07;9.10;;;;;;;;;;5027793;28;20451;-80
2023/08/25 01:10:26;;;;;;;8.20;7.37;;;;;;;;;;5027103;28;20570;-82
2023/08/25 01:13:00;;;;;;;8.70;7.90;;;;;;;;;;5028229;28;20479;-80
2023/08/25 01:15:31;;;;;;;10.13;7.93;;;;;;;;;;5028393;28;21523;-82
2023/08/25 01:18:01;;;;;;;10.00;9.07;;;;;;;;;;5029102;28;20451;-79
2023/08/25 01:20:28;;;;;;;7.53;6.87;;;;;;;;;;5029771;28;20451;-82
2023/08/25 01:23:04;;;;;;;9.97;8.10;;;;;;;;;;5030006;28;20538;-82
2023/08/25 01:25:33;;;;;;;8.30;7.60;;;;;;;;;;5030790;28;20719;-81
2023/08/25 01:28:03;;;;;;;9.33;7.57;;;;;;;;;;5030393;28;20900;-82
2023/08/25 01:30:31;;;;;;;8.80;6.97;;;;;;;;;;5028059;28;20464;-83
2023/08/25 01:32:59;;;;;;;7.60;6.80;;;;;;;;;;5025960;28;20459;-81
2023/08/25 01:35:29;;;;;;;12.00;6.70;;;;;;;;;;5028478;28;20471;-83
2023/08/25 01:38:01;;;;;;;9.20;6.87;;;;;;;;;;5033328;28;20523;-78
2023/08/25 01:40:33;;;;;;;8.00;6.97;;;;;;;;;;5030292;28;20502;-82
2023/08/25 01:43:04;;;;;;;12.47;7.57;;;;;;;;;;5034886;28;20449;-81
2023/08/25 01:45:32;;;;;;;7.73;7.03;;;;;;;;;;5032494;28;20490;-82
2023/08/25 01:48:01;;;;;;;9.93;7.00;;;;;;;;;;5030634;28;20925;-82
2023/08/25 01:50:28;;;;;;;9.27;6.83;;;;;;;;;;5030360;28;20470;-81
2023/08/25 01:52:56;;;;;;;8.33;7.43;;;;;;;;;;5029521;28;20455;-82
2023/08/25 01:55:24;;;;;;;8.67;7.20;;;;;;;;;;5028527;28;20830;-81
2023/08/25 01:57:52;;;;;;;12.93;7.17;;;;;;;;;;5027258;28;20451;-80
2023/08/25 02:00:21;;;;;;;7.57;6.87;;;;;;;;;;5028105;28;20795;-81
2023/08/25 02:02:48;;;;;;;9.10;7.77;;;;;;;;;;5034276;28;20787;-77
2023/08/25 02:05:16;;;;;;;9.13;6.50;;;;;;;;;;5027347;28;20554;-81
2023/08/25 02:07:44;;;;;;;7.73;6.93;;;;;;;;;;5030843;28;20463;-78
2023/08/25 02:10:12;;;;;;;7.87;7.07;;;;;;;;;;5027366;28;20739;-80
2023/08/25 02:12:42;;;;;;;8.30;7.50;;;;;;;;;;5030541;28;20483;-80
2023/08/25 02:15:10;;;;;;;7.87;6.93;;;;;;;;;;5029375;28;20533;-81
2023/08/25 02:17:40;;;;;;;7.73;6.93;;;;;;;;;;5026837;28;20459;-77
2023/08/25 02:20:36;;;;;;;9.13;7.73;;;;;;;;;;5028976;28;20552;-82
2023/08/25 02:23:03;;;;;;;9.40;7.80;;;;;;;;;;5028926;28;20474;-82
2023/08/25 02:25:31;;;;;;;8.93;8.03;;;;;;;;;;5029661;28;20459;-79
2023/08/25 02:27:58;;;;;;;9.80;6.90;;;;;;;;;;5028120;28;20486;-80
2023/08/25 02:30:26;;;;;;;7.93;6.87;;;;;;;;;;5027392;28;20439;-81
2023/08/25 02:32:54;;;;;;;8.80;7.17;;;;;;;;;;5027285;28;20459;-80
2023/08/25 02:35:22;;;;;;;8.57;7.67;;;;;;;;;;5030328;28;20637;-80
2023/08/25 02:37:59;;;;;;;8.37;7.40;;;;;;;;;;5027359;28;20846;-82
2023/08/25 02:40:27;;;;;;;8.37;7.37;;;;;;;;;;5026389;28;20485;-79
2023/08/25 02:42:54;;;;;;;9.10;6.70;;;;;;;;;;5024456;28;20448;-80
2023/08/25 02:45:24;;;;;;;8.83;7.93;;;;;;;;;;5028079;28;20529;-82
2023/08/25 02:47:51;;;;;;;7.70;6.77;;;;;;;;;;5026389;28;20455;-81
2023/08/25 02:50:20;;;;;;;11.60;7.20;;;;;;;;;;5024001;28;20888;-81
2023/08/25 02:52:48;;;;;;;14.57;7.37;;;;;;;;;;5023160;28;20487;-81
2023/08/25 02:55:17;;;;;;;7.43;6.47;;;;;;;;;;5022271;28;20486;-81
2023/08/25 02:57:45;;;;;;;7.90;6.90;;;;;;;;;;5029627;28;20448;-80
2023/08/25 03:00:16;;;;;;;9.20;6.83;;;;;;;;;;5025884;28;20525;-81
2023/08/25 03:02:50;;;;;;;10.20;6.87;;;;;;;;;;5024776;28;20460;-78
2023/08/25 03:05:18;;;;;;;9.10;7.07;;;;;;;;;;5024647;28;20443;-81
2023/08/25 03:07:46;;;;;;;8.30;7.50;;;;;;;;;;5025331;28;20515;-81
2023/08/25 03:10:17;;;;;;;8.03;6.97;;;;;;;;;;5024145;28;20871;-80
2023/08/25 03:12:44;;;;;;;8.77;7.00;;;;;;;;;;5022817;28;20447;-79
2023/08/25 03:15:11;;;;;;;7.87;7.07;;;;;;;;;;5022813;28;20455;-79
2023/08/25 03:17:41;;;;;;;8.47;6.30;;;;;;;;;;5024400;28;20459;-79
2023/08/25 03:20:09;;;;;;;8.77;6.60;;;;;;;;;;5025138;28;20783;-80
2023/08/25 03:22:36;;;;;;;11.77;6.47;;;;;;;;;;5026399;28;20533;-80
2023/08/25 03:25:05;;;;;;;9.33;7.40;;;;;;;;;;5023389;28;20451;-79
2023/08/25 03:27:34;;;;;;;8.20;7.37;;;;;;;;;;5023187;28;20447;-79
2023/08/25 03:30:09;;;;;;;15.13;6.90;;;;;;;;;;5022124;28;20513;-80
2023/08/25 03:32:37;;;;;;;7.60;6.80;;;;;;;;;;5024166;28;20468;-81
2023/08/25 03:35:04;;;;;;;10.00;7.57;;;;;;;;;;5021058;28;20459;-80
2023/08/25 03:37:32;;;;;;;9.33;7.80;;;;;;;;;;5024270;28;20463;-81
2023/08/25 03:39:59;;;;;;;8.27;7.43;;;;;;;;;;5024396;28;20483;-81
2023/08/25 03:42:28;;;;;;;10.83;8.00;;;;;;;;;;5022950;28;20562;-80
2023/08/25 03:44:56;;;;;;;8.87;7.97;;;;;;;;;;5023086;28;20443;-81
2023/08/25 03:47:26;;;;;;;8.60;7.80;;;;;;;;;;5026170;28;20490;-80
2023/08/25 03:49:53;;;;;;;8.03;6.70;;;;;;;;;;5023246;28;20463;-79
2023/08/25 03:52:21;;;;;;;9.80;7.80;;;;;;;;;;5027741;28;20435;-81
2023/08/25 03:54:49;;;;;;;12.10;8.80;;;;;;;;;;5024266;28;20455;-81
2023/08/25 03:57:16;;;;;;;9.60;7.77;;;;;;;;;;5025922;28;20867;-79
2023/08/25 03:59:45;;;;;;;10.03;7.97;;;;;;;;;;5023622;28;20523;-80
2023/08/25 04:02:12;;;;;;;11.73;8.07;;;;;;;;;;5025195;28;20561;-81
2023/08/25 04:04:40;;;;;;;9.97;7.93;;;;;;;;;;5026504;28;20455;-79
2023/08/25 04:07:07;;;;;;;10.80;8.60;;;;;;;;;;5020659;28;20475;-79
2023/08/25 04:09:35;;;;;;;9.33;8.43;;;;;;;;;;5027874;28;20474;-80
2023/08/25 04:12:03;;;;;;;12.23;8.63;;;;;;;;;;5024538;28;20565;-80
2023/08/25 04:14:30;;;;;;;8.30;7.50;;;;;;;;;;5022159;28;20939;-81
2023/08/25 04:16:59;;;;;;;13.43;9.57;;;;;;;;;;5020996;28;20541;-81
2023/08/25 04:19:26;;;;;;;10.60;8.77;;;;;;;;;;5022627;28;20490;-79
2023/08/25 04:21:54;;;;;;;8.97;8.17;;;;;;;;;;5020555;28;20691;-80
2023/08/25 04:24:21;;;;;;;8.80;8.00;;;;;;;;;;5020428;28;20527;-79
2023/08/25 04:26:49;;;;;;;9.70;8.70;;;;;;;;;;5019219;28;20966;-79
2023/08/25 04:29:16;;;;;;;10.10;8.33;;;;;;;;;;5020290;28;20554;-80
2023/08/25 04:31:44;;;;;;;9.87;8.83;;;;;;;;;;5022291;28;20455;-80
2023/08/25 04:34:13;;;;;;;10.40;8.80;;;;;;;;;;5018438;28;20443;-80
2023/08/25 04:36:42;;;;;;;12.20;9.40;;;;;;;;;;5022358;28;20447;-80
2023/08/25 04:39:10;;;;;;;14.73;8.93;;;;;;;;;;5020776;28;20458;-81
2023/08/25 04:41:39;;;;;;;10.43;9.33;;;;;;;;;;5026729;28;20487;-81
2023/08/25 04:44:07;;;;;;;10.30;8.90;;;;;;;;;;5024641;28;20542;-80
2023/08/25 04:46:34;;;;;;;11.23;10.10;;;;;;;;;;5020312;28;20533;-81
2023/08/25 04:49:02;;;;;;;9.67;8.77;;;;;;;;;;5022543;28;20557;-80
2023/08/25 04:51:31;;;;;;;10.73;9.57;;;;;;;;;;5027048;28;20466;-80
2023/08/25 04:53:59;;;;;;;12.87;9.70;;;;;;;;;;5024685;28;20683;-80
2023/08/25 04:56:26;;;;;;;10.17;8.80;;;;;;;;;;5027034;28;20494;-78
2023/08/25 04:58:54;;;;;;;9.47;8.57;;;;;;;;;;5023144;28;20523;-79
2023/08/25 05:01:21;;;;;;;10.80;9.67;;;;;;;;;;5030197;28;20498;-79
2023/08/25 05:03:49;;;;;;;8.97;8.07;;;;;;;;;;5025131;28;20521;-80
2023/08/25 05:06:16;;;;;;;9.30;8.40;;;;;;;;;;5027397;28;20483;-80
2023/08/25 05:08:45;;;;;;;14.70;11.23;;;;;;;;;;5021750;28;20462;-81
2023/08/25 05:11:13;;;;;;;10.33;8.77;;;;;;;;;;5024438;28;20477;-80
2023/08/25 05:13:41;;;;;;;11.30;10.10;;;;;;;;;;5021868;28;20451;-81
2023/08/25 05:16:09;;;;;;;12.20;9.27;;;;;;;;;;5024568;28;20447;-81
2023/08/25 05:18:36;;;;;;;11.50;9.73;;;;;;;;;;5023985;28;20466;-81
2023/08/25 05:21:04;;;;;;;10.47;9.47;;;;;;;;;;5025112;28;20491;-80
2023/08/25 05:23:32;;;;;;;11.53;8.90;;;;;;;;;;5021706;28;20481;-79
2023/08/25 05:26:01;;;;;;;10.47;9.33;;;;;;;;;;5020643;28;20455;-80
2023/08/25 05:28:28;;;;;;;11.93;9.27;;;;;;;;;;5023052;28;20513;-81
2023/08/25 05:30:56;;;;;;;11.33;9.50;;;;;;;;;;5023017;28;20529;-79
2023/08/25 05:33:23;;;;;;;11.03;9.93;;;;;;;;;;5017380;28;20902;-77
2023/08/25 05:35:51;;;;;;;11.33;10.13;;;;;;;;;;5019449;28;20466;-78
2023/08/25 05:38:18;;;;;;;11.57;10.40;;;;;;;;;;5018364;28;20455;-79
2023/08/25 05:40:46;;;;;;;12.13;9.60;;;;;;;;;;5017723;28;20624;-80
2023/08/25 05:43:15;;;;;;;12.10;8.57;;;;;;;;;;5023518;28;20447;-80
2023/08/25 05:45:42;;;;;;;12.63;10.00;;;;;;;;;;5024883;28;20455;-81
2023/08/25 05:48:10;;;;;;;11.73;10.33;;;;;;;;;;5024177;28;20446;-80
2023/08/25 05:50:37;;;;;;;11.77;10.60;;;;;;;;;;5025632;28;20455;-79
2023/08/25 05:53:05;;;;;;;15.53;10.60;;;;;;;;;;5023182;28;20475;-77
2023/08/25 05:55:33;;;;;;;15.03;11.37;;;;;;;;;;5023880;28;21067;-80
2023/08/25 05:58:00;;;;;;;14.13;10.00;;;;;;;;;;5026500;28;20537;-82
2023/08/25 06:00:30;;;;;;;13.70;12.27;;;;;;;;;;5025578;28;20475;-81
2023/08/25 06:02:57;;;;;;;11.60;10.43;;;;;;;;;;5024226;28;20448;-81
2023/08/25 06:05:24;;;;;;;13.73;10.87;;;;;;;;;;5024873;28;20435;-80
2023/08/25 06:07:52;;;;;;;13.37;10.20;;;;;;;;;;5023398;28;20519;-80
2023/08/25 06:10:20;;;;;;;12.97;10.10;;;;;;;;;;5027924;28;20498;-79
2023/08/25 06:12:48;;;;;;;12.53;11.30;;;;;;;;;;5022108;28;20447;-80
2023/08/25 06:15:18;;;;;;;12.20;11.00;;;;;;;;;;5021887;28;20458;-81
2023/08/25 06:17:47;;;;;;;16.60;11.50;;;;;;;;;;5024325;28;20447;-79
2023/08/25 06:20:21;;;;;;;13.60;10.87;;;;;;;;;;5019831;28;20495;-79
2023/08/25 06:22:48;;;;;;;14.23;12.37;;;;;;;;;;5033807;28;20443;-81
2023/08/25 06:25:16;;;;;;;15.40;11.50;;;;;;;;;;5017021;28;20455;-81
2023/08/25 06:27:43;;;;;;;17.00;13.40;;;;;;;;;;5025113;28;20759;-79
2023/08/25 06:30:19;;;;;;;18.33;13.60;;;;;;;;;;5027461;28;20451;-80
2023/08/25 06:32:48;;;;;;;13.73;11.70;;;;;;;;;;5006496;28;20448;-81
2023/08/25 06:35:15;;;;;;;13.47;11.63;;;;;;;;;;5025740;28;20455;-79
2023/08/25 06:37:43;;;;;;;15.00;11.80;;;;;;;;;;5040648;28;20882;-79
2023/08/25 06:40:15;;;;;;;15.77;11.97;;;;;;;;;;5034389;28;20494;-78
2023/08/25 06:42:43;;;;;;;17.40;12.73;;;;;;;;;;5037137;28;20535;-78
2023/08/25 06:45:15;;;;;;;21.10;14.57;;;;;;;;;;5023429;28;20451;-82
2023/08/25 06:47:45;;;;;;;15.10;12.50;;;;;;;;;;5018742;28;20456;-80
2023/08/25 06:50:17;;;;;;;15.37;13.37;;;;;;;;;;5021869;28;20946;-79
2023/08/25 06:52:45;;;;;;;15.90;13.30;;;;;;;;;;5023806;28;20470;-80
2023/08/25 06:55:12;;;;;;;18.17;14.93;;;;;;;;;;5022723;28;20904;-80
2023/08/25 06:57:40;;;;;;;15.23;12.77;;;;;;;;;;5021033;28;20545;-81
2023/08/25 07:00:08;;;;;;;16.90;13.20;;;;;;;;;;5024908;28;20451;-81
2023/08/25 07:02:40;;;;;;;17.23;14.40;;;;;;;;;;5022742;28;20482;-79
2023/08/25 07:05:08;;;;;;;20.60;13.80;;;;;;;;;;5005535;28;20615;-78
2023/08/25 07:07:37;;;;;;;14.07;12.57;;;;;;;;;;5006628;28;20514;-79
2023/08/25 07:10:08;;;;;;;21.80;15.93;;;;;;;;;;5004427;28;20483;-81
2023/08/25 07:12:36;;;;;;;18.37;13.67;;;;;;;;;;5008062;28;20483;-79
2023/08/25 07:15:04;;;;;;;19.57;16.80;;;;;;;;;;5025435;28;20448;-77
2023/08/25 07:17:31;;;;;;;23.23;15.80;;;;;;;;;;5025631;28;20712;-79
2023/08/25 07:19:59;;;;;;;18.00;14.97;;;;;;;;;;5026175;28;20464;-80
2023/08/25 07:22:26;;;;;;;20.47;15.00;;;;;;;;;;5028456;28;20466;-81
2023/08/25 07:24:55;;;;;;;18.60;15.20;;;;;;;;;;5024730;28;20459;-79
2023/08/25 07:27:22;;;;;;;20.30;16.60;;;;;;;;;;5026128;28;20486;-79
2023/08/25 07:29:53;;;;;;;23.20;17.93;;;;;;;;;;5023028;28;20459;-79
2023/08/25 07:32:20;;;;;;;18.90;16.47;;;;;;;;;;5026872;28;20489;-80
2023/08/25 07:34:48;;;;;;;19.43;17.10;;;;;;;;;;5026652;28;20448;-78
2023/08/25 07:37:15;;;;;;;19.00;15.90;;;;;;;;;;5024010;28;20456;-80
2023/08/25 07:39:43;;;;;;;23.60;16.30;;;;;;;;;;5025909;28;20462;-80
2023/08/25 07:42:12;;;;;;;17.57;15.70;;;;;;;;;;5028964;28;20573;-80
2023/08/25 07:44:40;;;;;;;20.33;16.50;;;;;;;;;;5026651;28;20446;-78
2023/08/25 07:47:08;;;;;;;18.40;16.40;;;;;;;;;;5023982;28;20444;-80
2023/08/25 07:49:43;;;;;;;18.13;13.37;;;;;;;;;;5024232;28;20458;-80
2023/08/25 07:52:11;;;;;;;15.13;13.57;;;;;;;;;;5012650;28;20458;-80
2023/08/25 07:54:39;;;;;;;16.67;14.87;;;;;;;;;;5022741;28;20525;-82
2023/08/25 07:57:07;;;;;;;21.17;15.67;;;;;;;;;;5021109;28;20463;-78
2023/08/25 07:59:38;;;;;;;17.30;14.97;;;;;;;;;;5010326;28;20503;-80
2023/08/25 08:02:05;;;;;;;15.23;13.73;;;;;;;;;;5025154;28;20484;-79
2023/08/25 08:04:33;;;;;;;14.87;13.37;;;;;;;;;;5022245;28;20455;-80
2023/08/25 08:07:02;;;;;;;16.13;13.90;;;;;;;;;;5022229;28;20451;-82
2023/08/25 08:09:31;;;;;;;15.97;12.83;;;;;;;;;;5022034;28;20588;-80
2023/08/25 08:11:59;;;;;;;16.10;13.53;;;;;;;;;;5020599;28;20460;-80
2023/08/25 08:14:26;;;;;;;13.87;12.10;;;;;;;;;;5026833;28;20451;-78
2023/08/25 08:16:58;;;;;;;13.30;11.87;;;;;;;;;;5024375;28;20455;-79
2023/08/25 08:19:28;;;;;;;13.73;12.20;;;;;;;;;;5026696;28;20540;-79
2023/08/25 08:21:55;;;;;;;16.70;13.57;;;;;;;;;;5026455;28;20498;-80
2023/08/25 08:24:26;;;;;;;14.93;12.50;;;;;;;;;;5025997;28;20455;-80
2023/08/25 08:26:53;;;;;;;17.70;11.63;;;;;;;;;;5028080;28;20736;-78
2023/08/25 08:29:22;;;;;;;12.00;10.67;;;;;;;;;;5029734;28;20487;-80
2023/08/25 08:31:49;;;;;;;13.40;11.70;;;;;;;;;;5028145;28;21049;-79
2023/08/25 08:34:18;;;;;;;11.40;10.30;;;;;;;;;;5029437;28;20874;-79
2023/08/25 08:36:47;;;;;;;11.93;10.63;;;;;;;;;;5027806;28;20802;-80
2023/08/25 08:39:15;;;;;;;14.07;10.80;;;;;;;;;;5027449;28;20525;-80
2023/08/25 08:41:42;;;;;;;15.30;11.47;;;;;;;;;;5027645;28;20486;-78
2023/08/25 08:44:12;;;;;;;12.50;11.20;;;;;;;;;;5027703;28;20553;-79
2023/08/25 08:46:44;;;;;;;14.50;11.00;;;;;;;;;;5029123;28;20453;-80
2023/08/25 08:49:12;;;;;;;12.70;10.80;;;;;;;;;;5027932;28;20463;-79
2023/08/25 08:51:42;;;;;;;13.47;12.07;;;;;;;;;;5027031;28;20470;-79
2023/08/25 08:54:11;;;;;;;11.20;10.00;;;;;;;;;;5025379;28;20458;-78
2023/08/25 08:56:39;;;;;;;13.40;10.97;;;;;;;;;;5027508;28;20646;-80
2023/08/25 08:59:08;;;;;;;13.23;10.50;;;;;;;;;;5023597;28;20457;-79
2023/08/25 09:01:37;;;;;;;11.67;9.60;;;;;;;;;;5028637;28;20487;-79
2023/08/25 09:04:06;;;;;;;10.90;9.27;;;;;;;;;;5021347;28;20558;-80
2023/08/25 09:06:36;;;;;;;11.37;10.00;;;;;;;;;;5025884;28;20474;-80
2023/08/25 09:09:08;;;;;;;11.30;10.10;;;;;;;;;;5023777;28;20482;-80
2023/08/25 09:11:36;;;;;;;11.30;9.50;;;;;;;;;;5023323;28;20458;-79
2023/08/25 09:14:07;;;;;;;9.90;8.90;;;;;;;;;;5024120;28;20737;-79
2023/08/25 09:16:36;;;;;;;12.00;9.90;;;;;;;;;;5020106;28;20462;-79
2023/08/25 09:19:04;;;;;;;12.53;10.33;;;;;;;;;;5024071;28;20478;-80
2023/08/25 09:21:41;;;;;;;10.50;9.50;;;;;;;;;;5024952;28;20486;-80
2023/08/25 09:24:28;;;;;;;16.67;8.03;;;;;;;;;;5024017;28;20451;-81
2023/08/25 09:27:00;;;;;;;8.37;7.47;;;;;;;;;;5021802;28;20863;-79
2023/08/25 09:29:28;;;;;;;10.13;9.13;;;;;;;;;;5026836;28;20463;-81
2023/08/25 09:31:55;;;;;;;9.63;8.23;;;;;;;;;;5022570;28;20475;-78
2023/08/25 09:34:23;;;;;;;11.87;9.47;;;;;;;;;;5026669;28;20529;-78
2023/08/25 09:36:54;;;;;;;10.40;8.60;;;;;;;;;;5025662;28;20455;-79
2023/08/25 09:39:23;;;;;;;13.53;10.00;;;;;;;;;;5025722;28;20463;-80
2023/08/25 09:41:55;;;;;;;12.67;10.37;;;;;;;;;;5019312;28;20487;-81
2023/08/25 09:44:24;;;;;;;12.33;11.03;;;;;;;;;;5447930;23;20553;-79
2023/08/25 09:47:03;;;;;;;14.50;10.93;;;;;;;;;;5026535;28;20439;-78
2023/08/25 09:49:40;;;;;;;11.50;10.27;;;;;;;;;;5021215;28;20464;-79
2023/08/25 09:52:15;;;;;;;11.70;10.50;;;;;;;;;;5022854;28;20461;-79
2023/08/25 09:54:44;;;;;;;12.20;9.97;;;;;;;;;;5019083;28;20455;-79
2023/08/25 09:57:14;;;;;;;12.00;10.17;;;;;;;;;;5021823;28;20463;-79
2023/08/25 09:59:46;;;;;;;11.27;10.07;;;;;;;;;;5019314;28;20546;-78
2023/08/25 10:02:15;;;;;;;10.70;8.93;;;;;;;;;;5019935;28;20486;-78
2023/08/25 10:04:44;;;;;;;11.53;9.67;;;;;;;;;;5022588;28;20463;-78
2023/08/25 10:07:16;;;;;;;12.17;9.40;;;;;;;;;;5023303;28;20452;-78
2023/08/25 10:09:47;;;;;;;12.70;9.70;;;;;;;;;;5020285;28;20459;-79
2023/08/25 10:12:25;;;;;;;11.40;10.13;;;;;;;;;;5024191;28;20501;-80
2023/08/25 10:14:58;;;;;;;10.57;9.53;;;;;;;;;;5016693;28;20463;-78
2023/08/25 10:17:28;;;;;;;11.80;9.33;;;;;;;;;;5017790;28;20490;-78
2023/08/25 10:19:57;;;;;;;12.97;10.07;;;;;;;;;;5019632;28;20451;-78
2023/08/25 10:22:26;;;;;;;11.30;9.07;;;;;;;;;;5020989;28;20533;-79
2023/08/25 10:25:03;;;;;;;10.53;9.57;;;;;;;;;;5020293;28;20467;-77
2023/08/25 10:27:32;;;;;;;13.43;10.20;;;;;;;;;;5014613;28;20540;-78
2023/08/25 10:30:00;;;;;;;10.13;9.13;;;;;;;;;;5019177;28;20444;-79
2023/08/25 10:32:43;;;;;;;10.30;9.40;;;;;;;;;;5017572;28;20540;-76
2023/08/25 10:35:11;;;;;;;12.27;10.40;;;;;;;;;;5014336;28;20459;-79
2023/08/25 10:37:39;;;;;;;14.00;10.10;;;;;;;;;;5022168;28;20451;-79
2023/08/25 10:40:11;;;;;;;11.77;10.67;;;;;;;;;;5022417;28;20428;-79
2023/08/25 10:42:41;;;;;;;9.87;8.97;;;;;;;;;;5019913;28;20724;-78
2023/08/25 10:45:11;;;;;;;11.00;9.90;;;;;;;;;;5021978;28;20486;-79
2023/08/25 10:47:44;;;;;;;11.47;10.37;;;;;;;;;;5021694;28;20473;-77
2023/08/25 10:50:16;;;;;;;12.53;11.43;;;;;;;;;;5022099;28;20470;-80
2023/08/25 10:52:44;;;;;;;11.17;10.07;;;;;;;;;;5021385;28;20451;-78
2023/08/25 10:55:26;;;;;;;12.13;11.03;;;;;;;;;;5023530;28;20451;-79
2023/08/25 10:57:54;;;;;;;12.00;10.60;;;;;;;;;;5024166;28;20470;-79
2023/08/25 11:00:27;;;;;;;11.73;10.23;;;;;;;;;;5025321;28;20455;-79
2023/08/25 11:02:55;;;;;;;12.67;10.70;;;;;;;;;;5021648;28;20491;-78
2023/08/25 11:05:41;;;;;;;12.00;10.77;;;;;;;;;;5026160;28;20514;-77
2023/08/25 11:08:25;;;;;;;12.83;11.63;;;;;;;;;;5021942;28;20776;-77
2023/08/25 11:11:10;;;;;;;13.40;11.60;;;;;;;;;;5021731;28;20451;-77
2023/08/25 11:13:41;;;;;;;12.13;11.00;;;;;;;;;;5018718;28;20455;-80
2023/08/25 11:16:12;;;;;;;27.43;13.47;;;;;;;;;;5018927;28;20498;-77
2023/08/25 11:18:43;;;;;;;13.97;11.67;;;;;;;;;;5012280;28;20447;-79
2023/08/25 11:21:11;;;;;;;13.23;10.70;;;;;;;;;;5022924;28;20467;-79
2023/08/25 11:23:39;;;;;;;11.73;10.57;;;;;;;;;;5018738;28;20875;-79
2023/08/25 11:26:11;;;;;;;12.80;11.50;;;;;;;;;;5014367;28;20491;-78
2023/08/25 11:29:02;;;;;;;11.73;9.77;;;;;;;;;;5015977;28;20468;-78
2023/08/25 11:31:32;;;;;;;12.23;11.07;;;;;;;;;;5012535;28;21064;-79
2023/08/25 11:34:04;;;;;;;10.67;9.67;;;;;;;;;;5009271;28;20459;-78
2023/08/25 11:36:31;;;;;;;14.07;9.60;;;;;;;;;;5020406;28;20490;-77
2023/08/25 11:38:59;;;;;;;10.80;9.70;;;;;;;;;;5021660;28;20451;-78
2023/08/25 11:41:46;;;;;;;12.37;11.10;;;;;;;;;;5023427;28;20461;-79
2023/08/25 11:44:17;;;;;;;12.00;10.80;;;;;;;;;;4998400;28;20452;-78
2023/08/25 11:46:44;;;;;;;12.80;11.60;;;;;;;;;;5002468;28;20548;-79
2023/08/25 11:49:15;;;;;;;13.47;12.20;;;;;;;;;;5005191;28;20452;-79
2023/08/25 11:51:43;;;;;;;12.37;11.20;;;;;;;;;;5004905;28;20499;-78
2023/08/25 11:54:10;;;;;;;14.87;12.50;;;;;;;;;;5001451;28;20849;-80
2023/08/25 11:56:38;;;;;;;12.00;10.80;;;;;;;;;;4999922;28;20456;-78
2023/08/25 11:59:09;;;;;;;11.30;10.20;;;;;;;;;;4997249;28;20462;-79
2023/08/25 12:01:38;;;;;;;14.23;10.93;;;;;;;;;;4998147;28;21273;-79
2023/08/25 12:04:22;;;;;;;11.17;9.93;;;;;;;;;;4999317;28;20543;-79
2023/08/25 12:06:52;;;;;;;10.93;9.87;;;;;;;;;;4997784;28;20587;-79
2023/08/25 12:09:24;;;;;;;16.23;9.93;;;;;;;;;;4995788;28;20553;-79
2023/08/25 12:11:52;;;;;;;12.40;11.30;;;;;;;;;;4999134;28;20697;-79
2023/08/25 12:14:29;;;;;;;12.50;11.30;;;;;;;;;;5009392;28;20550;-78
2023/08/25 12:16:58;;;;;;;12.20;11.00;;;;;;;;;;5019418;28;20461;-80
2023/08/25 12:19:27;;;;;;;20.87;18.70;;;;;;;;;;5017925;28;20489;-79
2023/08/25 12:22:00;;;;;;;14.57;12.40;;;;;;;;;;5017616;28;20494;-78
2023/08/25 12:24:28;;;;;;;13.50;11.90;;;;;;;;;;5036464;28;20465;-79
2023/08/25 12:26:56;;;;;;;12.77;11.57;;;;;;;;;;5030733;28;20920;-78
2023/08/25 12:29:23;;;;;;;13.50;12.20;;;;;;;;;;5022699;28;20624;-80
2023/08/25 12:31:53;;;;;;;13.47;12.17;;;;;;;;;;5020801;28;20447;-78
2023/08/25 12:34:21;;;;;;;15.03;13.20;;;;;;;;;;5020117;28;20470;-80
2023/08/25 12:36:50;;;;;;;15.90;14.30;;;;;;;;;;5013369;28;20701;-79
2023/08/25 12:39:18;;;;;;;12.30;11.20;;;;;;;;;;4998656;28;20478;-76
2023/08/25 12:41:45;;;;;;;11.57;9.70;;;;;;;;;;5009472;28;20483;-79
2023/08/25 12:44:14;;;;;;;12.10;10.10;;;;;;;;;;5009998;28;20491;-78
2023/08/25 12:46:43;;;;;;;13.10;11.53;;;;;;;;;;5008374;28;20468;-79
2023/08/25 12:49:10;;;;;;;12.50;11.30;;;;;;;;;;5002301;28;20848;-78
2023/08/25 12:51:47;;;;;;;16.20;14.43;;;;;;;;;;5003670;28;20444;-80
2023/08/25 12:54:15;;;;;;;17.57;15.60;;;;;;;;;;4997762;28;21154;-78
2023/08/25 12:56:43;;;;;;;19.30;15.20;;;;;;;;;;4999629;28;20464;-79
2023/08/25 12:59:11;;;;;;;16.13;14.60;;;;;;;;;;4997202;28;20471;-79
2023/08/25 13:01:44;;;;;;;14.60;13.17;;;;;;;;;;4998418;28;20467;-79
2023/08/25 13:04:12;;;;;;;14.17;12.90;;;;;;;;;;5001813;28;20420;-80
2023/08/25 13:06:40;;;;;;;12.90;11.87;;;;;;;;;;5008576;28;20775;-80
2023/08/25 13:09:09;;;;;;;13.40;12.00;;;;;;;;;;5022005;28;20663;-79
2023/08/25 13:11:37;;;;;;;12.27;10.97;;;;;;;;;;5017531;28;20467;-79
2023/08/25 13:14:06;;;;;;;14.70;11.77;;;;;;;;;;5023057;28;20471;-79
2023/08/25 13:16:34;;;;;;;12.90;11.70;;;;;;;;;;5018178;28;20443;-78
2023/08/25 13:19:02;;;;;;;12.13;10.83;;;;;;;;;;5019881;28;20463;-78
2023/08/25 13:21:30;;;;;;;13.97;12.67;;;;;;;;;;5022153;28;20471;-78
2023/08/25 13:23:58;;;;;;;15.60;13.93;;;;;;;;;;5020804;28;20507;-79
2023/08/25 13:26:28;;;;;;;10.37;9.27;;;;;;;;;;5022031;28;20467;-79
2023/08/25 13:28:56;;;;;;;11.03;9.87;;;;;;;;;;5021837;28;20475;-77
2023/08/25 13:31:23;;;;;;;8.90;8.10;;;;;;;;;;5022866;28;20547;-79
2023/08/25 13:33:51;;;;;;;8.57;7.73;;;;;;;;;;5023793;28;20779;-78
2023/08/25 13:36:21;;;;;;;11.13;8.97;;;;;;;;;;5025360;28;20956;-79
2023/08/25 13:38:49;;;;;;;12.80;9.33;;;;;;;;;;5021915;28;20471;-79
2023/08/25 13:41:16;;;;;;;9.43;8.50;;;;;;;;;;5021017;28;20452;-79
2023/08/25 13:43:46;;;;;;;11.03;9.07;;;;;;;;;;5024578;28;20479;-79
2023/08/25 13:46:14;;;;;;;10.30;9.30;;;;;;;;;;5022011;28;21075;-78
2023/08/25 13:48:41;;;;;;;11.70;10.20;;;;;;;;;;5020728;28;20529;-79
2023/08/25 13:51:10;;;;;;;12.17;10.97;;;;;;;;;;5020830;28;20483;-79
2023/08/25 13:53:40;;;;;;;10.07;9.10;;;;;;;;;;5017508;28;20566;-78
2023/08/25 13:56:07;;;;;;;10.70;9.53;;;;;;;;;;5024567;28;20535;-79
2023/08/25 13:58:47;;;;;;;10.53;9.43;;;;;;;;;;5022274;28;20459;-78
2023/08/25 14:01:20;;;;;;;11.33;8.80;;;;;;;;;;5022409;28;20443;-79
2023/08/25 14:03:48;;;;;;;10.00;8.83;;;;;;;;;;5020720;28;20546;-78
2023/08/25 14:06:16;;;;;;;15.57;11.23;;;;;;;;;;5022461;28;20550;-77
2023/08/25 14:08:46;;;;;;;10.60;8.00;;;;;;;;;;5020747;28;20451;-79
2023/08/25 14:11:14;;;;;;;8.50;7.70;;;;;;;;;;5016639;28;20455;-80
2023/08/25 14:13:42;;;;;;;10.63;9.60;;;;;;;;;;5014719;28;20483;-79
2023/08/25 14:16:10;;;;;;;12.03;8.33;;;;;;;;;;5014875;28;20455;-78
2023/08/25 14:18:39;;;;;;;10.43;7.30;;;;;;;;;;5009672;28;21116;-79
2023/08/25 14:21:07;;;;;;;7.30;6.60;;;;;;;;;;5010369;28;20793;-78
2023/08/25 14:23:34;;;;;;;6.83;5.97;;;;;;;;;;5017230;28;20487;-80
2023/08/25 14:26:01;;;;;;;10.23;8.07;;;;;;;;;;5016826;28;20490;-79
2023/08/25 14:28:29;;;;;;;8.43;7.37;;;;;;;;;;5017492;28;20619;-81
2023/08/25 14:30:57;;;;;;;8.77;7.20;;;;;;;;;;5016937;28;20772;-79
2023/08/25 14:33:24;;;;;;;11.20;7.77;;;;;;;;;;5017519;28;20486;-79
2023/08/25 14:35:53;;;;;;;10.20;8.87;;;;;;;;;;5019048;28;20443;-80
2023/08/25 14:38:21;;;;;;;10.43;9.07;;;;;;;;;;5019632;28;20459;-79
2023/08/25 14:40:52;;;;;;;8.83;7.93;;;;;;;;;;5018295;28;20471;-80